createdAt,value
2023-05-06T00:02:19.801Z,99416.75
2023-05-06T00:04:50.289Z,99421.06
2023-05-06T00:07:19.348Z,99424.63
2023-05-06T00:09:47.837Z,99414.97
2023-05-06T00:12:16.719Z,99414.16
2023-05-06T00:14:45.295Z,99420.34
2023-05-06T00:17:14.150Z,99419.56
2023-05-06T00:19:44.518Z,99421.06
2023-05-06T00:22:13.362Z,99417.75
2023-05-06T00:24:41.931Z,99415.03
2023-05-06T00:27:10.815Z,99419.56
2023-05-06T00:29:39.514Z,99418.59
2023-05-06T00:32:08.571Z,99415.97
2023-05-06T00:34:37.304Z,99422.94
2023-05-06T00:37:07.439Z,99415.16
2023-05-06T00:39:36.216Z,99423.06
2023-05-06T00:42:05.515Z,99417.81
2023-05-06T00:44:34.163Z,99418.69
2023-05-06T00:47:03.036Z,99424.88
2023-05-06T00:49:32.018Z,99418.69
2023-05-06T00:52:01.360Z,99428.38
2023-05-06T00:54:31.894Z,99420.34
2023-05-06T00:57:01.430Z,99428.50
2023-05-06T00:59:30.098Z,99419.69
2023-05-06T01:01:59.369Z,99422.41
2023-05-06T01:04:29.707Z,99423.44
2023-05-06T01:07:09.258Z,99423.97
2023-05-06T01:09:44.384Z,99418.84
2023-05-06T01:12:22.564Z,99422.66
2023-05-06T01:15:01.023Z,99418.44
2023-05-06T01:17:33.000Z,99427.50
2023-05-06T01:20:02.878Z,99422.47
2023-05-06T01:22:33.409Z,99421.06
2023-05-06T01:25:03.326Z,99415.88
2023-05-06T01:27:32.180Z,99420.41
2023-05-06T01:30:01.612Z,99420.47
2023-05-06T01:32:41.654Z,99423.69
2023-05-06T01:35:21.144Z,99422.75
2023-05-06T01:37:57.794Z,99420.22
2023-05-06T01:40:30.368Z,99420.53
2023-05-06T01:43:01.430Z,99423.25
2023-05-06T01:45:32.431Z,99416.44
2023-05-06T01:48:01.767Z,99420.31
2023-05-06T01:50:31.639Z,99420.56
2023-05-06T01:53:04.475Z,99419.00
2023-05-06T01:55:34.494Z,99421.88
2023-05-06T01:58:03.498Z,99417.69
2023-05-06T02:00:32.062Z,99419.91
2023-05-06T02:03:01.032Z,99418.38
2023-05-06T02:05:29.700Z,99420.22
2023-05-06T02:08:00.835Z,99419.38
2023-05-06T02:10:29.922Z,99427.25
2023-05-06T02:13:05.578Z,99428.16
2023-05-06T02:15:34.249Z,99411.41
2023-05-06T02:18:03.501Z,99413.28
2023-05-06T02:20:32.215Z,99410.78
2023-05-06T02:23:01.115Z,99420.69
2023-05-06T02:25:30.441Z,99415.56
2023-05-06T02:27:59.312Z,99417.47
2023-05-06T02:30:30.610Z,99416.78
2023-05-06T02:32:59.578Z,99416.03
2023-05-06T02:35:28.175Z,99413.59
2023-05-06T02:37:57.062Z,99417.22
2023-05-06T02:40:25.706Z,99409.63
2023-05-06T02:42:54.821Z,99412.53
2023-05-06T02:45:23.324Z,99421.59
2023-05-06T02:47:53.565Z,99412.03
2023-05-06T02:50:22.136Z,99415.63
2023-05-06T02:52:51.054Z,99417.47
2023-05-06T02:55:19.942Z,99420.34
2023-05-06T02:57:48.802Z,99423.16
2023-05-06T03:00:18.014Z,99420.63
2023-05-06T03:02:47.266Z,99418.91
2023-05-06T03:05:17.607Z,99412.94
2023-05-06T03:07:46.648Z,99415.03
2023-05-06T03:10:16.434Z,99415.91
2023-05-06T03:12:46.123Z,99406.88
2023-05-06T03:15:14.727Z,99408.31
2023-05-06T03:17:43.608Z,99409.88
2023-05-06T03:20:13.694Z,99407.78
2023-05-06T03:22:50.149Z,99410.25
2023-05-06T03:25:20.085Z,99409.22
2023-05-06T03:27:49.839Z,99412.59
2023-05-06T03:30:21.817Z,99411.59
2023-05-06T03:32:53.165Z,99409.75
2023-05-06T03:35:28.505Z,99404.97
2023-05-06T03:38:02.877Z,99404.34
2023-05-06T03:40:42.512Z,99406.25
2023-05-06T03:43:11.687Z,99410.63
2023-05-06T03:45:40.564Z,99412.84
2023-05-06T03:48:10.122Z,99407.38
2023-05-06T03:50:42.548Z,99406.28
2023-05-06T03:53:12.840Z,99399.34
2023-05-06T03:55:44.636Z,99409.00
2023-05-06T03:58:14.754Z,99412.22
2023-05-06T04:00:46.010Z,99417.25
2023-05-06T04:03:14.975Z,99418.44
2023-05-06T04:05:48.120Z,99418.69
2023-05-06T04:08:20.455Z,99419.88
2023-05-06T04:10:49.291Z,99428.72
2023-05-06T04:13:29.767Z,99427.28
2023-05-06T04:16:00.864Z,99421.81
2023-05-06T04:18:36.181Z,99426.25
2023-05-06T04:21:12.265Z,99437.50
2023-05-06T04:23:44.818Z,99439.06
2023-05-06T04:26:17.459Z,99435.16
2023-05-06T04:28:47.693Z,99439.50
2023-05-06T04:31:16.826Z,99441.59
2023-05-06T04:33:48.558Z,99443.91
2023-05-06T04:36:20.874Z,99443.34
2023-05-06T04:39:23.358Z,99442.94
2023-05-06T04:41:52.668Z,99438.84
2023-05-06T04:44:29.572Z,99438.97
2023-05-06T04:46:58.942Z,99445.75
2023-05-06T04:49:27.803Z,99444.16
2023-05-06T04:51:57.128Z,99449.88
2023-05-06T04:54:28.270Z,99444.75
2023-05-06T04:56:57.464Z,99443.63
2023-05-06T04:59:26.473Z,99440.28
2023-05-06T05:01:55.110Z,99449.22
2023-05-06T05:04:24.028Z,99438.13
2023-05-06T05:06:53.135Z,99437.38
2023-05-06T05:09:22.195Z,99443.59
2023-05-06T05:11:52.643Z,99436.59
2023-05-06T05:14:21.876Z,99438.59
2023-05-06T05:16:50.571Z,99437.94
2023-05-06T05:19:20.160Z,99441.72
2023-05-06T05:21:49.567Z,99448.88
2023-05-06T05:24:18.607Z,99450.84
2023-05-06T05:26:47.256Z,99441.44
2023-05-06T05:29:19.375Z,99444.03
2023-05-06T05:31:49.401Z,99446.88
2023-05-06T05:34:18.253Z,99441.66
2023-05-06T05:36:47.404Z,99444.91
2023-05-06T05:39:17.244Z,99453.88
2023-05-06T05:41:48.303Z,99452.94
2023-05-06T05:44:19.072Z,99450.41
2023-05-06T05:46:48.046Z,99460.06
2023-05-06T05:49:20.159Z,99448.94
2023-05-06T05:51:51.104Z,99457.81
2023-05-06T05:54:21.881Z,99458.06
2023-05-06T05:56:50.615Z,99454.53
2023-05-06T05:59:20.944Z,99462.38
2023-05-06T06:01:51.979Z,99458.94
2023-05-06T06:04:21.330Z,99460.16
2023-05-06T06:06:50.102Z,99460.19
2023-05-06T06:09:19.991Z,99459.84
2023-05-06T06:11:49.589Z,99463.72
2023-05-06T06:14:20.056Z,99461.97
2023-05-06T06:16:50.350Z,99460.81
2023-05-06T06:19:20.562Z,99462.66
2023-05-06T06:21:49.243Z,99470.03
2023-05-06T06:24:19.111Z,99458.75
2023-05-06T06:26:48.326Z,99463.03
2023-05-06T06:29:17.399Z,99465.88
2023-05-06T06:31:47.423Z,99466.06
2023-05-06T06:34:17.015Z,99463.59
2023-05-06T06:36:45.793Z,99463.25
2023-05-06T06:39:15.145Z,99462.19
2023-05-06T06:41:43.937Z,99461.91
2023-05-06T06:44:12.870Z,99456.41
2023-05-06T06:46:41.770Z,99460.78
2023-05-06T06:49:11.982Z,99461.59
2023-05-06T06:51:40.629Z,99455.75
2023-05-06T06:54:09.997Z,99458.75
2023-05-06T06:56:38.579Z,99456.94
2023-05-06T06:59:08.898Z,99463.25
2023-05-06T07:01:37.700Z,99467.41
2023-05-06T07:04:07.380Z,99467.28
2023-05-06T07:06:37.564Z,99456.09
2023-05-06T07:09:06.474Z,99471.88
2023-05-06T07:11:35.084Z,99472.69
2023-05-06T07:14:04.072Z,99466.72
2023-05-06T07:16:32.891Z,99467.13
2023-05-06T07:19:02.087Z,99466.16
2023-05-06T07:21:32.309Z,99463.59
2023-05-06T07:24:02.682Z,99469.41
2023-05-06T07:26:31.343Z,99474.81
2023-05-06T07:29:00.818Z,99475.78
2023-05-06T07:31:29.411Z,99483.28
2023-05-06T07:33:58.493Z,99477.00
2023-05-06T07:36:28.717Z,99481.63
2023-05-06T07:38:57.757Z,99484.06
2023-05-06T07:41:27.780Z,99479.38
2023-05-06T07:43:56.688Z,99476.59
2023-05-06T07:46:25.837Z,99490.16
2023-05-06T07:48:54.729Z,99487.78
2023-05-06T07:51:23.310Z,99493.25
2023-05-06T07:53:52.158Z,99491.53
2023-05-06T07:56:20.815Z,99488.66
2023-05-06T07:58:51.383Z,99490.81
2023-05-06T08:01:20.080Z,99483.69
2023-05-06T08:03:49.154Z,99489.09
2023-05-06T08:06:17.852Z,99487.75
2023-05-06T08:08:47.531Z,99488.66
2023-05-06T08:11:17.493Z,99494.06
2023-05-06T08:13:48.283Z,99486.09
2023-05-06T08:16:18.537Z,99484.69
2023-05-06T08:18:47.417Z,99495.75
2023-05-06T08:21:16.230Z,99497.41
2023-05-06T08:23:45.361Z,99497.53
2023-05-06T08:26:14.119Z,99500.91
2023-05-06T08:28:43.191Z,99504.91
2023-05-06T08:31:11.920Z,99491.63
2023-05-06T08:33:42.182Z,99491.72
2023-05-06T08:36:10.942Z,99498.34
2023-05-06T08:38:39.962Z,99493.94
2023-05-06T08:41:10.750Z,99494.97
2023-05-06T08:43:42.840Z,99500.22
2023-05-06T08:46:11.909Z,99501.00
2023-05-06T08:48:42.275Z,99495.22
2023-05-06T08:51:14.813Z,99501.97
2023-05-06T08:53:48.083Z,99502.16
2023-05-06T08:56:17.687Z,99505.59
2023-05-06T08:58:47.501Z,99501.97
2023-05-06T09:01:16.800Z,99500.91
2023-05-06T09:03:48.256Z,99497.38
2023-05-06T09:06:17.115Z,99492.84
2023-05-06T09:08:45.824Z,99491.59
2023-05-06T09:11:23.087Z,99498.84
2023-05-06T09:13:52.468Z,99493.69
2023-05-06T09:16:31.899Z,99483.69
2023-05-06T09:19:02.054Z,99482.88
2023-05-06T09:21:34.346Z,99488.25
2023-05-06T09:24:04.125Z,99491.34
2023-05-06T09:26:34.446Z,99487.41
2023-05-06T09:29:03.287Z,99491.97
2023-05-06T09:31:32.308Z,99483.63
2023-05-06T09:34:02.294Z,99486.84
2023-05-06T09:36:31.902Z,99486.44
2023-05-06T09:39:00.766Z,99478.59
2023-05-06T09:41:30.398Z,99485.84
2023-05-06T09:43:59.476Z,99466.97
2023-05-06T09:46:29.026Z,99480.00
2023-05-06T09:48:58.903Z,99473.25
2023-05-06T09:51:29.527Z,99473.78
2023-05-06T09:53:59.249Z,99476.22
2023-05-06T09:56:29.412Z,99478.59
2023-05-06T09:59:01.424Z,99468.22
2023-05-06T10:01:36.870Z,99456.88
2023-05-06T10:04:11.103Z,99466.03
2023-05-06T10:06:42.817Z,99457.47
2023-05-06T10:09:12.049Z,99465.38
2023-05-06T10:11:41.815Z,99458.47
2023-05-06T10:14:11.279Z,99455.38
2023-05-06T10:16:42.835Z,99450.72
2023-05-06T10:19:13.621Z,99449.13
2023-05-06T10:21:51.317Z,99449.63
2023-05-06T10:24:30.232Z,99446.34
2023-05-06T10:26:59.117Z,99453.44
2023-05-06T10:29:27.868Z,99441.34
2023-05-06T10:32:00.617Z,99439.53
2023-05-06T10:34:37.376Z,99437.81
2023-05-06T10:37:09.179Z,99433.78
2023-05-06T10:39:38.545Z,99431.34
2023-05-06T10:42:11.656Z,99428.16
2023-05-06T10:45:00.283Z,99428.97
2023-05-06T10:47:29.268Z,99427.25
2023-05-06T10:50:25.615Z,99428.53
2023-05-06T10:52:57.810Z,99436.03
2023-05-06T10:55:28.041Z,99429.66
2023-05-06T10:57:57.901Z,99425.09
2023-05-06T11:00:27.075Z,99425.03
2023-05-06T11:02:57.873Z,99430.38
2023-05-06T11:05:26.832Z,99425.78
2023-05-06T11:08:09.180Z,99420.34
2023-05-06T11:10:37.868Z,99414.69
2023-05-06T11:13:26.590Z,99420.63
2023-05-06T11:15:56.334Z,99413.66
2023-05-06T11:18:45.825Z,99413.78
2023-05-06T11:21:36.778Z,99411.88
2023-05-06T11:24:12.358Z,99410.09
2023-05-06T11:26:44.528Z,99408.38
2023-05-06T11:29:13.438Z,99415.50
2023-05-06T11:31:44.064Z,99409.53
2023-05-06T11:34:22.524Z,99411.47
2023-05-06T11:36:55.003Z,99406.94
2023-05-06T11:39:25.788Z,99406.84
2023-05-06T11:41:54.777Z,99416.78
2023-05-06T11:44:29.170Z,99409.59
2023-05-06T11:47:02.134Z,99416.97
2023-05-06T11:49:31.630Z,99413.13
2023-05-06T11:52:00.331Z,99418.41
2023-05-06T11:54:35.175Z,99426.22
2023-05-06T11:57:03.708Z,99423.34
2023-05-06T11:59:34.527Z,99421.66
2023-05-06T12:02:04.857Z,99427.63
2023-05-06T12:04:44.139Z,99423.25
2023-05-06T12:07:14.497Z,99422.97
2023-05-06T12:09:47.162Z,99415.56
2023-05-06T12:12:19.768Z,99419.69
2023-05-06T12:14:50.782Z,99414.69
2023-05-06T12:17:20.292Z,99399.50
2023-05-06T12:19:49.317Z,99404.81
2023-05-06T12:22:22.495Z,99398.13
2023-05-06T12:24:53.213Z,99378.91
2023-05-06T12:27:32.546Z,99390.00
2023-05-06T12:30:04.271Z,99392.63
2023-05-06T12:32:34.429Z,99390.06
2023-05-06T12:35:07.499Z,99399.34
2023-05-06T12:37:36.350Z,99401.34
2023-05-06T12:40:17.303Z,99399.41
2023-05-06T12:42:47.877Z,99404.44
2023-05-06T12:45:17.654Z,99390.56
2023-05-06T12:47:55.887Z,99400.59
2023-05-06T12:50:37.333Z,99394.00
2023-05-06T12:53:07.129Z,99396.81
2023-05-06T12:55:38.558Z,99393.41
2023-05-06T12:58:16.969Z,99390.56
2023-05-06T13:00:45.977Z,99393.03
2023-05-06T13:03:15.009Z,99387.72
2023-05-06T13:05:44.023Z,99391.13
2023-05-06T13:08:12.772Z,99385.56
2023-05-06T13:10:43.190Z,99392.84
2023-05-06T13:13:11.805Z,99388.56
2023-05-06T13:15:40.734Z,99392.94
2023-05-06T13:18:10.098Z,99392.47
2023-05-06T13:20:39.061Z,99387.03
2023-05-06T13:23:07.925Z,99391.97
2023-05-06T13:25:47.951Z,99379.28
2023-05-06T13:28:26.983Z,99383.28
2023-05-06T13:30:55.895Z,99382.03
2023-05-06T13:33:24.825Z,99380.97
2023-05-06T13:35:53.744Z,99383.66
2023-05-06T13:38:22.317Z,99386.06
2023-05-06T13:40:52.447Z,99383.59
2023-05-06T13:43:21.705Z,99379.78
2023-05-06T13:45:52.243Z,99385.72
2023-05-06T13:48:20.774Z,99385.00
2023-05-06T13:50:49.730Z,99379.88
2023-05-06T13:53:18.401Z,99383.69
2023-05-06T13:55:47.901Z,99370.50
2023-05-06T13:58:17.141Z,99368.75
2023-05-06T14:00:46.058Z,99370.94
2023-05-06T14:03:18.816Z,99366.34
2023-05-06T14:05:47.819Z,99369.38
2023-05-06T14:08:16.411Z,99368.63
2023-05-06T14:10:45.409Z,99363.75
2023-05-06T14:13:14.129Z,99365.63
2023-05-06T14:15:43.003Z,99360.88
2023-05-06T14:18:11.802Z,99360.66
2023-05-06T14:20:42.288Z,99361.88
2023-05-06T14:23:10.893Z,99349.19
2023-05-06T14:25:40.279Z,99355.91
2023-05-06T14:28:10.472Z,99351.13
2023-05-06T14:30:39.689Z,99349.44
2023-05-06T14:33:08.484Z,99352.69
2023-05-06T14:35:37.522Z,99350.16
2023-05-06T14:38:07.515Z,99353.44
2023-05-06T14:40:38.837Z,99345.53
2023-05-06T14:43:08.168Z,99345.56
2023-05-06T14:45:36.991Z,99342.00
2023-05-06T14:48:06.762Z,99344.56
2023-05-06T14:50:35.886Z,99345.75
2023-05-06T14:53:04.523Z,99340.66
2023-05-06T14:55:34.796Z,99348.84
2023-05-06T14:58:03.695Z,99340.53
2023-05-06T15:00:32.767Z,99344.94
2023-05-06T15:03:01.874Z,99343.19
2023-05-06T15:05:30.851Z,99341.13
2023-05-06T15:07:59.695Z,99340.28
2023-05-06T15:10:28.742Z,99340.78
2023-05-06T15:12:58.661Z,99345.03
2023-05-06T15:15:27.603Z,99331.84
2023-05-06T15:17:56.311Z,99328.81
2023-05-06T15:20:25.392Z,99331.13
2023-05-06T15:22:53.988Z,99333.56
2023-05-06T15:25:34.362Z,99327.59
2023-05-06T15:28:06.714Z,99324.28
2023-05-06T15:30:35.660Z,99329.16
2023-05-06T15:33:04.530Z,99336.88
2023-05-06T15:35:33.494Z,99330.28
2023-05-06T15:38:04.892Z,99326.75
2023-05-06T15:40:33.803Z,99325.25
2023-05-06T15:43:02.451Z,99323.78
2023-05-06T15:45:32.690Z,99321.69
2023-05-06T15:48:01.422Z,99322.06
2023-05-06T15:50:33.911Z,99332.28
2023-05-06T15:53:03.773Z,99309.72
2023-05-06T15:55:41.458Z,99320.47
2023-05-06T15:58:14.095Z,99310.81
2023-05-06T16:00:44.427Z,99314.84
2023-05-06T16:03:13.154Z,99318.25
2023-05-06T16:05:42.135Z,99313.25
2023-05-06T16:08:11.039Z,99316.00
2023-05-06T16:10:39.982Z,99307.09
2023-05-06T16:13:08.636Z,99304.41
2023-05-06T16:15:37.863Z,99306.53
2023-05-06T16:18:08.062Z,99305.97
2023-05-06T16:20:37.009Z,99305.53
2023-05-06T16:23:06.867Z,99301.91
2023-05-06T16:25:37.815Z,99307.03
2023-05-06T16:28:06.790Z,99303.50
2023-05-06T16:30:35.782Z,99306.16
2023-05-06T16:33:05.222Z,99302.94
2023-05-06T16:35:35.662Z,99296.84
2023-05-06T16:38:04.300Z,99296.78
2023-05-06T16:40:33.456Z,99295.38
2023-05-06T16:43:02.007Z,99299.06
2023-05-06T16:45:30.854Z,99302.88
2023-05-06T16:47:59.571Z,99292.47
2023-05-06T16:50:28.702Z,99297.03
2023-05-06T16:52:58.883Z,99293.16
2023-05-06T16:55:27.836Z,99291.44
2023-05-06T16:57:56.495Z,99289.75
2023-05-06T17:00:26.352Z,99290.94
2023-05-06T17:02:55.039Z,99289.63
2023-05-06T17:05:24.467Z,99289.53
2023-05-06T17:07:53.145Z,99291.00
2023-05-06T17:10:24.764Z,99287.78
2023-05-06T17:12:53.606Z,99284.34
2023-05-06T17:15:22.906Z,99298.13
2023-05-06T17:17:51.729Z,99297.75
2023-05-06T17:20:21.269Z,99299.72
2023-05-06T17:22:50.092Z,99304.34
2023-05-06T17:25:19.172Z,99309.34
2023-05-06T17:27:49.081Z,99310.44
2023-05-06T17:30:18.047Z,99311.97
2023-05-06T17:32:46.645Z,99305.19
2023-05-06T17:35:15.590Z,99315.53
2023-05-06T17:37:44.357Z,99317.38
2023-05-06T17:40:15.250Z,99316.22
2023-05-06T17:42:43.861Z,99318.72
2023-05-06T17:45:14.734Z,99325.97
2023-05-06T17:47:43.530Z,99327.84
2023-05-06T17:50:13.289Z,99326.66
2023-05-06T17:52:41.887Z,99328.72
2023-05-06T17:55:16.262Z,99328.34
2023-05-06T17:57:46.134Z,99328.03
2023-05-06T18:00:17.711Z,99335.00
2023-05-06T18:02:46.657Z,99332.63
2023-05-06T18:05:15.712Z,99336.25
2023-05-06T18:07:44.256Z,99335.81
2023-05-06T18:10:13.321Z,99339.53
2023-05-06T18:12:41.936Z,99339.34
2023-05-06T18:15:11.745Z,99341.03
2023-05-06T18:17:42.277Z,99347.31
2023-05-06T18:20:12.437Z,99338.81
2023-05-06T18:22:42.942Z,99342.00
2023-05-06T18:25:12.116Z,99344.22
2023-05-06T18:27:41.023Z,99351.78
2023-05-06T18:30:10.481Z,99355.59
2023-05-06T18:32:39.066Z,99360.81
2023-05-06T18:35:11.577Z,99367.50
2023-05-06T18:37:40.433Z,99369.22
2023-05-06T18:40:10.219Z,99361.81
2023-05-06T18:42:38.782Z,99364.28
2023-05-06T18:45:09.066Z,99368.41
2023-05-06T18:47:40.208Z,99364.22
2023-05-06T18:50:11.542Z,99368.94
2023-05-06T18:52:40.202Z,99364.91
2023-05-06T18:55:10.113Z,99374.06
2023-05-06T18:57:39.601Z,99370.78
2023-05-06T19:00:09.749Z,99376.00
2023-05-06T19:02:38.469Z,99377.00
2023-05-06T19:05:09.033Z,99369.75
2023-05-06T19:07:39.061Z,99376.13
2023-05-06T19:10:08.880Z,99376.16
2023-05-06T19:12:37.423Z,99382.47
2023-05-06T19:15:07.726Z,99380.16
2023-05-06T19:17:36.366Z,99376.63
2023-05-06T19:20:06.051Z,99377.16
2023-05-06T19:22:34.731Z,99367.91
2023-05-06T19:25:05.122Z,99369.88
2023-05-06T19:27:33.646Z,99371.88
2023-05-06T19:30:02.461Z,99365.84
2023-05-06T19:32:33.000Z,99368.66
2023-05-06T19:35:08.162Z,99365.44
2023-05-06T19:37:37.280Z,99363.78
2023-05-06T19:40:09.459Z,99366.63
2023-05-06T19:42:38.112Z,99362.75
2023-05-06T19:45:11.048Z,99362.84
2023-05-06T19:47:40.149Z,99366.53
2023-05-06T19:50:10.461Z,99365.00
2023-05-06T19:52:39.235Z,99374.00
2023-05-06T19:55:10.918Z,99367.69
2023-05-06T19:57:39.744Z,99370.56
2023-05-06T20:00:11.770Z,99373.25
2023-05-06T20:02:41.449Z,99375.97
2023-05-06T20:05:11.247Z,99371.63
2023-05-06T20:07:40.079Z,99377.00
2023-05-06T20:10:13.506Z,99377.72
2023-05-06T20:12:42.261Z,99378.03
2023-05-06T20:15:11.865Z,99372.97
2023-05-06T20:17:40.762Z,99374.16
2023-05-06T20:20:11.510Z,99364.38
2023-05-06T20:22:40.845Z,99367.44
2023-05-06T20:25:13.132Z,99366.75
2023-05-06T20:27:42.020Z,99364.41
2023-05-06T20:30:11.350Z,99356.63
2023-05-06T20:32:41.140Z,99361.03
2023-05-06T20:35:10.597Z,99364.59
2023-05-06T20:37:39.474Z,99368.50
2023-05-06T20:40:09.791Z,99352.88
2023-05-06T20:42:39.712Z,99363.72
2023-05-06T20:45:09.845Z,99359.53
2023-05-06T20:47:38.822Z,99358.00
2023-05-06T20:50:08.530Z,99358.84
2023-05-06T20:52:37.107Z,99362.69
2023-05-06T20:55:07.246Z,99371.69
2023-05-06T20:57:35.835Z,99369.28
2023-05-06T21:00:07.978Z,99369.88
2023-05-06T21:02:41.352Z,99367.16
2023-05-06T21:05:11.572Z,99372.59
2023-05-06T21:07:40.641Z,99364.72
2023-05-06T21:10:11.757Z,99382.38
2023-05-06T21:12:40.519Z,99371.97
2023-05-06T21:15:12.392Z,99368.53
2023-05-06T21:17:41.250Z,99365.88
2023-05-06T21:20:11.001Z,99370.66
2023-05-06T21:22:39.673Z,99371.66
2023-05-06T21:25:10.065Z,99357.91
2023-05-06T21:27:38.775Z,99359.84
2023-05-06T21:30:09.050Z,99363.22
2023-05-06T21:32:39.367Z,99360.28
2023-05-06T21:35:09.075Z,99359.97
2023-05-06T21:37:37.740Z,99358.19
2023-05-06T21:40:07.508Z,99365.59
2023-05-06T21:42:36.157Z,99358.66
2023-05-06T21:45:05.738Z,99359.59
2023-05-06T21:47:34.592Z,99364.19
2023-05-06T21:50:05.419Z,99355.28
2023-05-06T21:52:34.150Z,99357.16
2023-05-06T21:55:02.951Z,99366.28
2023-05-06T21:57:32.801Z,99367.13
2023-05-06T22:00:01.790Z,99358.63
2023-05-06T22:02:37.058Z,99367.66
2023-05-06T22:05:09.043Z,99364.84
2023-05-06T22:07:38.105Z,99365.97
2023-05-06T22:10:08.100Z,99369.84
2023-05-06T22:12:36.858Z,99376.09
2023-05-06T22:15:07.466Z,99377.25
2023-05-06T22:17:36.633Z,99373.06
2023-05-06T22:20:10.995Z,99380.44
2023-05-06T22:22:39.660Z,99375.72
2023-05-06T22:25:09.489Z,99373.06
2023-05-06T22:27:38.201Z,99372.53
2023-05-06T22:30:08.515Z,99370.88
2023-05-06T22:32:37.137Z,99364.97
2023-05-06T22:35:09.333Z,99367.69
2023-05-06T22:37:38.237Z,99365.38
2023-05-06T22:40:09.303Z,99368.09
2023-05-06T22:42:37.945Z,99369.75
2023-05-06T22:45:08.035Z,99361.47
2023-05-06T22:47:36.600Z,99375.66
2023-05-06T22:50:08.338Z,99373.78
2023-05-06T22:52:36.897Z,99382.66
2023-05-06T22:55:07.052Z,99375.13
2023-05-06T22:57:35.763Z,99374.47
2023-05-06T23:00:05.681Z,99369.63
2023-05-06T23:02:34.733Z,99372.19
2023-05-06T23:05:04.061Z,99368.69
2023-05-06T23:07:34.004Z,99366.44
2023-05-06T23:10:03.082Z,99371.00
2023-05-06T23:12:33.510Z,99364.97
2023-05-06T23:15:02.734Z,99371.25
2023-05-06T23:17:31.340Z,99368.38
2023-05-06T23:20:00.243Z,99359.69
2023-05-06T23:22:28.895Z,99362.50
2023-05-06T23:24:59.415Z,99358.00
2023-05-06T23:27:27.990Z,99355.47
2023-05-06T23:29:57.084Z,99356.47
2023-05-06T23:32:25.812Z,99348.44
2023-05-06T23:34:55.057Z,99338.81
2023-05-06T23:37:23.592Z,99347.06
2023-05-06T23:39:53.051Z,99344.56
2023-05-06T23:42:24.372Z,99332.38
2023-05-06T23:44:54.588Z,99338.75
2023-05-06T23:47:24.549Z,99335.41
2023-05-06T23:49:53.461Z,99340.69
2023-05-06T23:52:22.378Z,99341.56
2023-05-06T23:54:51.192Z,99342.47
2023-05-06T23:57:19.771Z,99340.97
2023-05-06T23:59:50.043Z,99344.19
